sensor_id;sensor_type;location;lat;lon;timestamp;pressure;altitude;pressure_sealevel;temperature;humidity
44351;BME280;62766;62.622;17.912;2022-10-31T00:00:24;101079.56;;;1.58;61.07
44351;BME280;62766;62.622;17.912;2022-10-31T00:02:52;101079.43;;;1.56;60.85
44351;BME280;62766;62.622;17.912;2022-10-31T00:05:21;101080.33;;;1.46;60.86
44351;BME280;62766;62.622;17.912;2022-10-31T00:07:52;101080.42;;;1.53;61.11
44351;BME280;62766;62.622;17.912;2022-10-31T00:10:20;101075.58;;;1.37;61.57
44351;BME280;62766;62.622;17.912;2022-10-31T00:12:48;101078.28;;;1.47;61.67
44351;BME280;62766;62.622;17.912;2022-10-31T00:15:17;101081.32;;;1.38;61.61
44351;BME280;62766;62.622;17.912;2022-10-31T00:17:45;101076.49;;;1.44;60.69
44351;BME280;62766;62.622;17.912;2022-10-31T00:20:14;101078.09;;;1.30;59.98
44351;BME280;62766;62.622;17.912;2022-10-31T00:22:42;101078.16;;;1.47;60.14
44351;BME280;62766;62.622;17.912;2022-10-31T00:25:11;101075.84;;;1.32;60.40
44351;BME280;62766;62.622;17.912;2022-10-31T00:27:39;101073.49;;;1.35;60.81
44351;BME280;62766;62.622;17.912;2022-10-31T00:30:08;101066.96;;;1.38;60.97
44351;BME280;62766;62.622;17.912;2022-10-31T00:32:38;101066.26;;;1.35;60.84
44351;BME280;62766;62.622;17.912;2022-10-31T00:35:07;101066.74;;;1.12;60.84
44351;BME280;62766;62.622;17.912;2022-10-31T00:37:36;101066.77;;;1.14;61.14
44351;BME280;62766;62.622;17.912;2022-10-31T00:40:06;101068.44;;;1.14;61.13
44351;BME280;62766;62.622;17.912;2022-10-31T00:42:36;101059.61;;;1.15;60.76
44351;BME280;62766;62.622;17.912;2022-10-31T00:45:06;101053.21;;;1.12;60.78
44351;BME280;62766;62.622;17.912;2022-10-31T00:47:37;101055.59;;;1.11;61.17
44351;BME280;62766;62.622;17.912;2022-10-31T00:50:07;101059.10;;;1.05;61.06
44351;BME280;62766;62.622;17.912;2022-10-31T00:52:37;101056.97;;;1.09;61.12
44351;BME280;62766;62.622;17.912;2022-10-31T00:55:05;101042.02;;;1.01;61.24
44351;BME280;62766;62.622;17.912;2022-10-31T00:57:34;101033.16;;;1.07;61.43
44351;BME280;62766;62.622;17.912;2022-10-31T01:00:04;101028.36;;;1.00;61.69
44351;BME280;62766;62.622;17.912;2022-10-31T01:02:34;101031.44;;;1.08;61.95
44351;BME280;62766;62.622;17.912;2022-10-31T01:05:04;101030.95;;;0.89;61.23
44351;BME280;62766;62.622;17.912;2022-10-31T01:07:36;101027.43;;;1.01;61.25
44351;BME280;62766;62.622;17.912;2022-10-31T01:10:05;101023.76;;;0.97;61.99
44351;BME280;62766;62.622;17.912;2022-10-31T01:12:36;101024.71;;;1.04;61.45
44351;BME280;62766;62.622;17.912;2022-10-31T01:15:06;101019.35;;;0.99;61.97
44351;BME280;62766;62.622;17.912;2022-10-31T01:17:36;101017.79;;;0.95;62.23
44351;BME280;62766;62.622;17.912;2022-10-31T01:20:08;101009.77;;;0.91;62.25
44351;BME280;62766;62.622;17.912;2022-10-31T01:22:37;101010.76;;;0.86;61.96
44351;BME280;62766;62.622;17.912;2022-10-31T01:25:07;101006.94;;;0.85;61.65
44351;BME280;62766;62.622;17.912;2022-10-31T01:27:36;101003.18;;;0.94;61.78
44351;BME280;62766;62.622;17.912;2022-10-31T01:30:07;101003.63;;;0.81;62.37
44351;BME280;62766;62.622;17.912;2022-10-31T01:32:37;101006.40;;;0.82;62.37
44351;BME280;62766;62.622;17.912;2022-10-31T01:35:05;101004.36;;;0.71;61.86
44351;BME280;62766;62.622;17.912;2022-10-31T01:37:33;101002.90;;;0.75;61.79
44351;BME280;62766;62.622;17.912;2022-10-31T01:40:02;100997.76;;;0.73;62.57
44351;BME280;62766;62.622;17.912;2022-10-31T01:42:30;101003.85;;;0.73;62.93
44351;BME280;62766;62.622;17.912;2022-10-31T01:45:01;101001.72;;;0.95;62.88
44351;BME280;62766;62.622;17.912;2022-10-31T01:47:35;100996.96;;;0.86;63.55
44351;BME280;62766;62.622;17.912;2022-10-31T01:50:10;100992.79;;;0.92;63.41
44351;BME280;62766;62.622;17.912;2022-10-31T01:52:43;100989.95;;;0.98;63.19
44351;BME280;62766;62.622;17.912;2022-10-31T01:55:15;100989.07;;;1.03;63.02
44351;BME280;62766;62.622;17.912;2022-10-31T01:57:52;100989.50;;;0.95;62.48
44351;BME280;62766;62.622;17.912;2022-10-31T02:00:21;100990.51;;;1.02;62.12
44351;BME280;62766;62.622;17.912;2022-10-31T02:02:51;100989.27;;;1.20;62.04
44351;BME280;62766;62.622;17.912;2022-10-31T02:05:24;100982.04;;;1.15;61.98
44351;BME280;62766;62.622;17.912;2022-10-31T02:07:58;100979.44;;;1.09;61.49
44351;BME280;62766;62.622;17.912;2022-10-31T02:10:30;100981.03;;;1.08;61.18
44351;BME280;62766;62.622;17.912;2022-10-31T02:13:03;100982.37;;;1.02;60.99
44351;BME280;62766;62.622;17.912;2022-10-31T02:15:33;100983.84;;;1.01;61.12
44351;BME280;62766;62.622;17.912;2022-10-31T02:18:03;100976.55;;;1.04;61.01
44351;BME280;62766;62.622;17.912;2022-10-31T02:20:39;100970.99;;;0.95;61.05
44351;BME280;62766;62.622;17.912;2022-10-31T02:28:10;100983.11;;;1.01;61.76
44351;BME280;62766;62.622;17.912;2022-10-31T02:30:55;100980.30;;;1.00;62.35
44351;BME280;62766;62.622;17.912;2022-10-31T02:33:31;100975.51;;;1.00;62.84
44351;BME280;62766;62.622;17.912;2022-10-31T02:36:09;100976.38;;;0.98;63.21
44351;BME280;62766;62.622;17.912;2022-10-31T02:38:49;100975.34;;;0.97;63.17
44351;BME280;62766;62.622;17.912;2022-10-31T02:41:26;100974.33;;;1.07;63.25
44351;BME280;62766;62.622;17.912;2022-10-31T02:44:07;100972.18;;;1.15;63.25
44351;BME280;62766;62.622;17.912;2022-10-31T02:46:41;100970.09;;;1.25;63.42
44351;BME280;62766;62.622;17.912;2022-10-31T02:49:24;100964.93;;;1.29;63.28
44351;BME280;62766;62.622;17.912;2022-10-31T02:51:56;100963.48;;;1.32;63.06
44351;BME280;62766;62.622;17.912;2022-10-31T02:54:26;100966.22;;;1.25;62.79
44351;BME280;62766;62.622;17.912;2022-10-31T02:56:59;100968.65;;;1.25;62.45
44351;BME280;62766;62.622;17.912;2022-10-31T02:59:32;100974.10;;;1.20;62.21
44351;BME280;62766;62.622;17.912;2022-10-31T03:02:23;100973.27;;;1.26;62.33
44351;BME280;62766;62.622;17.912;2022-10-31T03:05:07;100967.29;;;1.20;62.49
44351;BME280;62766;62.622;17.912;2022-10-31T03:07:49;100959.58;;;0.99;62.41
44351;BME280;62766;62.622;17.912;2022-10-31T03:10:26;100965.76;;;1.01;62.28
44351;BME280;62766;62.622;17.912;2022-10-31T03:13:04;100966.95;;;1.06;62.42
44351;BME280;62766;62.622;17.912;2022-10-31T03:15:37;100967.01;;;0.97;62.51
44351;BME280;62766;62.622;17.912;2022-10-31T03:18:09;100967.75;;;0.98;62.17
44351;BME280;62766;62.622;17.912;2022-10-31T03:20:41;100967.23;;;0.96;62.87
44351;BME280;62766;62.622;17.912;2022-10-31T03:23:15;100971.90;;;1.09;62.83
44351;BME280;62766;62.622;17.912;2022-10-31T03:25:46;100965.80;;;1.16;62.59
44351;BME280;62766;62.622;17.912;2022-10-31T03:28:19;100970.75;;;1.04;62.11
44351;BME280;62766;62.622;17.912;2022-10-31T03:30:52;100975.77;;;0.98;61.76
44351;BME280;62766;62.622;17.912;2022-10-31T03:33:26;100969.06;;;1.05;62.38
44351;BME280;62766;62.622;17.912;2022-10-31T03:36:00;100967.94;;;1.02;62.55
44351;BME280;62766;62.622;17.912;2022-10-31T03:38:32;100966.73;;;0.99;62.34
44351;BME280;62766;62.622;17.912;2022-10-31T03:41:05;100962.72;;;1.02;62.06
44351;BME280;62766;62.622;17.912;2022-10-31T03:43:41;100958.78;;;1.08;61.73
44351;BME280;62766;62.622;17.912;2022-10-31T03:46:11;100966.13;;;1.07;62.48
44351;BME280;62766;62.622;17.912;2022-10-31T03:48:40;100960.33;;;1.08;62.50
44351;BME280;62766;62.622;17.912;2022-10-31T03:51:15;100963.21;;;0.99;62.37
44351;BME280;62766;62.622;17.912;2022-10-31T03:53:52;100973.22;;;0.90;62.57
44351;BME280;62766;62.622;17.912;2022-10-31T03:56:29;100961.39;;;0.79;62.69
44351;BME280;62766;62.622;17.912;2022-10-31T03:59:02;100947.13;;;0.85;62.82
44351;BME280;62766;62.622;17.912;2022-10-31T04:01:39;100944.28;;;0.86;62.58
44351;BME280;62766;62.622;17.912;2022-10-31T04:04:10;100942.79;;;0.89;62.44
44351;BME280;62766;62.622;17.912;2022-10-31T04:06:40;100940.35;;;0.76;62.15
44351;BME280;62766;62.622;17.912;2022-10-31T04:09:12;100940.24;;;1.01;62.69
44351;BME280;62766;62.622;17.912;2022-10-31T04:11:47;100944.24;;;1.10;62.74
44351;BME280;62766;62.622;17.912;2022-10-31T04:14:17;100931.76;;;0.93;62.70
44351;BME280;62766;62.622;17.912;2022-10-31T04:16:46;100931.54;;;1.04;62.65
44351;BME280;62766;62.622;17.912;2022-10-31T04:19:14;100926.09;;;0.96;62.59
44351;BME280;62766;62.622;17.912;2022-10-31T04:21:43;100923.15;;;0.88;63.08
44351;BME280;62766;62.622;17.912;2022-10-31T04:24:11;100930.54;;;0.95;63.19
44351;BME280;62766;62.622;17.912;2022-10-31T04:26:39;100935.57;;;0.85;63.20
44351;BME280;62766;62.622;17.912;2022-10-31T04:29:08;100928.74;;;0.99;63.06
44351;BME280;62766;62.622;17.912;2022-10-31T04:31:37;100927.27;;;1.13;62.83
44351;BME280;62766;62.622;17.912;2022-10-31T04:34:05;100925.05;;;1.02;62.85
44351;BME280;62766;62.622;17.912;2022-10-31T04:36:34;100926.41;;;1.10;62.89
44351;BME280;62766;62.622;17.912;2022-10-31T04:39:04;100918.67;;;0.99;62.98
44351;BME280;62766;62.622;17.912;2022-10-31T04:41:32;100913.24;;;1.11;62.82
44351;BME280;62766;62.622;17.912;2022-10-31T04:44:00;100912.09;;;1.08;62.84
44351;BME280;62766;62.622;17.912;2022-10-31T04:46:29;100911.02;;;1.08;62.61
44351;BME280;62766;62.622;17.912;2022-10-31T04:48:57;100903.55;;;1.10;62.71
44351;BME280;62766;62.622;17.912;2022-10-31T04:51:26;100894.30;;;1.18;62.68
44351;BME280;62766;62.622;17.912;2022-10-31T04:53:54;100885.53;;;1.22;62.73
44351;BME280;62766;62.622;17.912;2022-10-31T04:56:23;100887.05;;;1.18;62.84
44351;BME280;62766;62.622;17.912;2022-10-31T04:58:51;100884.61;;;1.29;62.90
44351;BME280;62766;62.622;17.912;2022-10-31T05:03:22;100891.23;;;1.33;62.84
44351;BME280;62766;62.622;17.912;2022-10-31T05:05:50;100878.46;;;1.30;62.58
44351;BME280;62766;62.622;17.912;2022-10-31T05:08:20;100882.85;;;1.18;62.47
44351;BME280;62766;62.622;17.912;2022-10-31T05:10:49;100874.39;;;1.27;62.36
44351;BME280;62766;62.622;17.912;2022-10-31T05:13:17;100874.18;;;1.35;62.16
44351;BME280;62766;62.622;17.912;2022-10-31T05:15:46;100874.68;;;1.30;62.04
44351;BME280;62766;62.622;17.912;2022-10-31T05:18:14;100871.53;;;1.21;61.90
44351;BME280;62766;62.622;17.912;2022-10-31T05:20:43;100870.82;;;1.34;61.99
44351;BME280;62766;62.622;17.912;2022-10-31T05:23:11;100875.62;;;1.47;62.03
44351;BME280;62766;62.622;17.912;2022-10-31T05:25:40;100869.67;;;1.35;62.43
44351;BME280;62766;62.622;17.912;2022-10-31T05:28:08;100874.25;;;1.28;62.44
44351;BME280;62766;62.622;17.912;2022-10-31T05:30:37;100874.32;;;1.28;62.63
44351;BME280;62766;62.622;17.912;2022-10-31T05:33:05;100869.96;;;1.27;62.82
44351;BME280;62766;62.622;17.912;2022-10-31T05:35:34;100875.34;;;1.44;62.82
44351;BME280;62766;62.622;17.912;2022-10-31T05:38:02;100875.74;;;1.38;62.92
44351;BME280;62766;62.622;17.912;2022-10-31T05:40:31;100875.16;;;1.37;63.04
44351;BME280;62766;62.622;17.912;2022-10-31T05:42:59;100861.88;;;1.41;63.13
44351;BME280;62766;62.622;17.912;2022-10-31T05:45:28;100848.66;;;1.47;63.07
44351;BME280;62766;62.622;17.912;2022-10-31T05:47:58;100848.70;;;1.46;62.99
44351;BME280;62766;62.622;17.912;2022-10-31T05:50:30;100843.95;;;1.42;63.03
44351;BME280;62766;62.622;17.912;2022-10-31T05:53:01;100844.75;;;1.57;63.01
44351;BME280;62766;62.622;17.912;2022-10-31T05:55:32;100840.34;;;1.46;62.82
44351;BME280;62766;62.622;17.912;2022-10-31T05:58:01;100848.85;;;1.51;62.72
44351;BME280;62766;62.622;17.912;2022-10-31T06:00:30;100846.86;;;1.63;62.80
44351;BME280;62766;62.622;17.912;2022-10-31T06:02:59;100836.68;;;1.51;63.16
44351;BME280;62766;62.622;17.912;2022-10-31T06:05:29;100834.81;;;1.57;63.24
44351;BME280;62766;62.622;17.912;2022-10-31T06:07:59;100832.15;;;1.40;63.93
44351;BME280;62766;62.622;17.912;2022-10-31T06:10:28;100828.16;;;1.40;64.32
44351;BME280;62766;62.622;17.912;2022-10-31T06:12:57;100832.40;;;1.38;63.91
44351;BME280;62766;62.622;17.912;2022-10-31T06:15:25;100833.65;;;1.44;63.65
44351;BME280;62766;62.622;17.912;2022-10-31T06:17:59;100834.93;;;1.49;63.41
44351;BME280;62766;62.622;17.912;2022-10-31T06:20:29;100849.74;;;1.58;63.44
44351;BME280;62766;62.622;17.912;2022-10-31T06:22:57;100848.11;;;1.49;63.61
44351;BME280;62766;62.622;17.912;2022-10-31T06:25:25;100845.44;;;1.50;63.85
44351;BME280;62766;62.622;17.912;2022-10-31T06:27:54;100845.86;;;1.46;64.18
44351;BME280;62766;62.622;17.912;2022-10-31T06:30:24;100841.44;;;1.47;64.28
44351;BME280;62766;62.622;17.912;2022-10-31T06:32:53;100833.17;;;1.55;64.21
44351;BME280;62766;62.622;17.912;2022-10-31T06:35:22;100841.38;;;1.65;64.24
44351;BME280;62766;62.622;17.912;2022-10-31T06:37:52;100844.88;;;1.70;64.20
44351;BME280;62766;62.622;17.912;2022-10-31T06:40:22;100844.17;;;1.79;63.86
44351;BME280;62766;62.622;17.912;2022-10-31T06:42:56;100837.14;;;1.99;63.97
44351;BME280;62766;62.622;17.912;2022-10-31T06:45:26;100822.74;;;2.09;63.96
44351;BME280;62766;62.622;17.912;2022-10-31T06:47:55;100815.14;;;1.98;63.74
44351;BME280;62766;62.622;17.912;2022-10-31T06:50:24;100815.85;;;2.06;63.72
44351;BME280;62766;62.622;17.912;2022-10-31T06:52:55;100819.76;;;1.96;64.03
44351;BME280;62766;62.622;17.912;2022-10-31T06:55:25;100814.70;;;1.96;64.21
44351;BME280;62766;62.622;17.912;2022-10-31T06:57:55;100808.03;;;2.05;64.33
44351;BME280;62766;62.622;17.912;2022-10-31T07:00:24;100812.33;;;2.17;64.34
44351;BME280;62766;62.622;17.912;2022-10-31T07:02:53;100814.95;;;2.28;64.02
44351;BME280;62766;62.622;17.912;2022-10-31T07:05:23;100816.15;;;2.15;63.95
44351;BME280;62766;62.622;17.912;2022-10-31T07:07:52;100811.77;;;2.31;63.86
44351;BME280;62766;62.622;17.912;2022-10-31T07:10:23;100808.39;;;2.30;63.92
44351;BME280;62766;62.622;17.912;2022-10-31T07:12:54;100806.47;;;2.23;64.12
44351;BME280;62766;62.622;17.912;2022-10-31T07:15:24;100801.97;;;2.28;64.09
44351;BME280;62766;62.622;17.912;2022-10-31T07:17:53;100799.94;;;2.38;63.99
44351;BME280;62766;62.622;17.912;2022-10-31T07:20:22;100810.63;;;2.36;63.80
44351;BME280;62766;62.622;17.912;2022-10-31T07:22:51;100812.90;;;2.39;64.00
44351;BME280;62766;62.622;17.912;2022-10-31T07:25:21;100803.83;;;2.35;64.09
44351;BME280;62766;62.622;17.912;2022-10-31T07:27:50;100802.30;;;2.50;64.19
44351;BME280;62766;62.622;17.912;2022-10-31T07:30:18;100813.05;;;2.46;64.04
44351;BME280;62766;62.622;17.912;2022-10-31T07:32:48;100804.46;;;2.49;63.93
44351;BME280;62766;62.622;17.912;2022-10-31T07:35:19;100804.84;;;2.63;63.69
44351;BME280;62766;62.622;17.912;2022-10-31T07:37:48;100810.41;;;2.56;63.63
44351;BME280;62766;62.622;17.912;2022-10-31T07:40:19;100801.95;;;2.48;63.51
44351;BME280;62766;62.622;17.912;2022-10-31T07:42:49;100791.95;;;2.54;63.58
44351;BME280;62766;62.622;17.912;2022-10-31T07:45:21;100789.58;;;2.52;63.57
44351;BME280;62766;62.622;17.912;2022-10-31T07:47:51;100787.63;;;2.70;63.72
44351;BME280;62766;62.622;17.912;2022-10-31T07:50:23;100781.47;;;2.57;63.66
44351;BME280;62766;62.622;17.912;2022-10-31T07:53:00;100798.51;;;2.80;63.88
44351;BME280;62766;62.622;17.912;2022-10-31T07:55:29;100801.98;;;2.77;64.38
44351;BME280;62766;62.622;17.912;2022-10-31T07:57:59;100797.99;;;2.79;64.48
44351;BME280;62766;62.622;17.912;2022-10-31T08:00:28;100796.03;;;2.66;64.57
44351;BME280;62766;62.622;17.912;2022-10-31T08:02:59;100794.10;;;2.90;64.30
44351;BME280;62766;62.622;17.912;2022-10-31T08:05:28;100792.72;;;2.80;64.20
44351;BME280;62766;62.622;17.912;2022-10-31T08:07:57;100785.95;;;2.85;64.34
44351;BME280;62766;62.622;17.912;2022-10-31T08:10:26;100789.31;;;2.80;64.58
44351;BME280;62766;62.622;17.912;2022-10-31T08:12:56;100791.38;;;2.84;64.78
44351;BME280;62766;62.622;17.912;2022-10-31T08:15:25;100791.98;;;2.95;65.10
44351;BME280;62766;62.622;17.912;2022-10-31T08:17:55;100786.15;;;3.04;65.07
44351;BME280;62766;62.622;17.912;2022-10-31T08:20:23;100784.39;;;3.10;65.11
44351;BME280;62766;62.622;17.912;2022-10-31T08:22:54;100785.55;;;3.03;64.54
44351;BME280;62766;62.622;17.912;2022-10-31T08:25:23;100786.80;;;3.09;64.30
44351;BME280;62766;62.622;17.912;2022-10-31T08:27:52;100781.57;;;3.21;64.17
44351;BME280;62766;62.622;17.912;2022-10-31T08:30:24;100779.21;;;3.22;64.24
44351;BME280;62766;62.622;17.912;2022-10-31T08:33:01;100779.51;;;3.22;64.28
44351;BME280;62766;62.622;17.912;2022-10-31T08:35:30;100775.15;;;3.28;64.30
44351;BME280;62766;62.622;17.912;2022-10-31T08:37:59;100773.61;;;3.49;64.25
44351;BME280;62766;62.622;17.912;2022-10-31T08:40:30;100778.16;;;3.48;64.08
44351;BME280;62766;62.622;17.912;2022-10-31T08:43:01;100781.66;;;3.38;64.09
44351;BME280;62766;62.622;17.912;2022-10-31T08:45:33;100778.27;;;3.54;64.14
44351;BME280;62766;62.622;17.912;2022-10-31T08:48:04;100772.64;;;3.68;64.17
44351;BME280;62766;62.622;17.912;2022-10-31T08:50:35;100765.71;;;3.84;64.20
44351;BME280;62766;62.622;17.912;2022-10-31T08:53:05;100760.55;;;3.87;64.59
44351;BME280;62766;62.622;17.912;2022-10-31T08:55:34;100753.85;;;3.96;65.87
44351;BME280;62766;62.622;17.912;2022-10-31T08:58:05;100755.86;;;4.04;66.75
44351;BME280;62766;62.622;17.912;2022-10-31T09:00:34;100752.39;;;4.05;67.41
44351;BME280;62766;62.622;17.912;2022-10-31T09:03:05;100753.33;;;4.16;68.19
44351;BME280;62766;62.622;17.912;2022-10-31T09:05:35;100750.86;;;4.32;68.67
44351;BME280;62766;62.622;17.912;2022-10-31T09:08:04;100750.05;;;4.31;68.66
44351;BME280;62766;62.622;17.912;2022-10-31T09:10:35;100748.23;;;4.53;68.63
44351;BME280;62766;62.622;17.912;2022-10-31T09:13:10;100747.67;;;4.43;68.75
44351;BME280;62766;62.622;17.912;2022-10-31T09:15:42;100745.19;;;4.60;68.93
44351;BME280;62766;62.622;17.912;2022-10-31T09:18:11;100742.60;;;4.68;69.13
44351;BME280;62766;62.622;17.912;2022-10-31T09:20:42;100740.72;;;4.68;69.45
44351;BME280;62766;62.622;17.912;2022-10-31T09:23:12;100734.85;;;4.76;69.29
44351;BME280;62766;62.622;17.912;2022-10-31T09:25:42;100743.75;;;4.74;69.25
44351;BME280;62766;62.622;17.912;2022-10-31T09:28:14;100736.89;;;5.02;69.07
44351;BME280;62766;62.622;17.912;2022-10-31T09:30:46;100734.23;;;5.24;69.05
44351;BME280;62766;62.622;17.912;2022-10-31T09:33:15;100732.78;;;5.23;69.07
44351;BME280;62766;62.622;17.912;2022-10-31T09:35:45;100738.08;;;5.18;69.18
44351;BME280;62766;62.622;17.912;2022-10-31T09:38:14;100732.86;;;5.11;69.22
44351;BME280;62766;62.622;17.912;2022-10-31T09:40:46;100731.79;;;5.20;69.31
44351;BME280;62766;62.622;17.912;2022-10-31T09:43:21;100731.89;;;5.48;69.20
44351;BME280;62766;62.622;17.912;2022-10-31T09:46:01;100733.13;;;5.20;69.26
44351;BME280;62766;62.622;17.912;2022-10-31T09:48:44;100737.12;;;5.31;69.61
44351;BME280;62766;62.622;17.912;2022-10-31T09:51:19;100734.38;;;5.29;69.63
44351;BME280;62766;62.622;17.912;2022-10-31T09:53:51;100722.52;;;5.43;69.65
44351;BME280;62766;62.622;17.912;2022-10-31T09:56:23;100718.52;;;5.53;69.45
44351;BME280;62766;62.622;17.912;2022-10-31T09:58:56;100714.11;;;5.65;69.74
44351;BME280;62766;62.622;17.912;2022-10-31T10:01:34;100714.85;;;5.78;69.62
44351;BME280;62766;62.622;17.912;2022-10-31T10:04:17;100712.77;;;5.82;69.31
44351;BME280;62766;62.622;17.912;2022-10-31T10:06:50;100714.03;;;5.82;69.02
44351;BME280;62766;62.622;17.912;2022-10-31T10:09:25;100715.76;;;5.84;68.64
44351;BME280;62766;62.622;17.912;2022-10-31T10:12:02;100704.91;;;5.78;68.45
44351;BME280;62766;62.622;17.912;2022-10-31T10:14:42;100701.32;;;5.62;68.42
44351;BME280;62766;62.622;17.912;2022-10-31T10:17:24;100698.77;;;5.71;68.59
44351;BME280;62766;62.622;17.912;2022-10-31T10:20:10;100695.03;;;5.64;68.75
44351;BME280;62766;62.622;17.912;2022-10-31T10:22:51;100699.04;;;5.73;68.93
44351;BME280;62766;62.622;17.912;2022-10-31T10:25:23;100694.98;;;5.89;68.97
44351;BME280;62766;62.622;17.912;2022-10-31T10:28:02;100695.68;;;5.94;68.90
44351;BME280;62766;62.622;17.912;2022-10-31T10:30:37;100696.68;;;6.06;69.05
44351;BME280;62766;62.622;17.912;2022-10-31T10:33:11;100698.74;;;6.14;69.06
44351;BME280;62766;62.622;17.912;2022-10-31T10:35:44;100706.36;;;6.26;69.37
44351;BME280;62766;62.622;17.912;2022-10-31T10:38:20;100709.95;;;6.34;69.05
44351;BME280;62766;62.622;17.912;2022-10-31T10:40:52;100703.59;;;6.40;68.65
44351;BME280;62766;62.622;17.912;2022-10-31T10:43:26;100704.32;;;6.60;68.35
44351;BME280;62766;62.622;17.912;2022-10-31T10:46:17;100705.67;;;6.44;68.19
44351;BME280;62766;62.622;17.912;2022-10-31T10:48:49;100696.94;;;6.58;67.84
44351;BME280;62766;62.622;17.912;2022-10-31T10:51:30;100696.28;;;6.54;67.86
44351;BME280;62766;62.622;17.912;2022-10-31T10:54:12;100684.55;;;6.64;67.76
44351;BME280;62766;62.622;17.912;2022-10-31T10:56:50;100686.33;;;6.71;68.13
44351;BME280;62766;62.622;17.912;2022-10-31T10:59:22;100683.56;;;6.91;67.69
44351;BME280;62766;62.622;17.912;2022-10-31T11:03:24;100673.99;;;7.12;67.36
44351;BME280;62766;62.622;17.912;2022-10-31T11:05:53;100672.82;;;7.23;66.95
44351;BME280;62766;62.622;17.912;2022-10-31T11:08:24;100676.06;;;7.41;66.15
44351;BME280;62766;62.622;17.912;2022-10-31T11:10:58;100674.35;;;7.42;65.95
44351;BME280;62766;62.622;17.912;2022-10-31T11:13:28;100680.80;;;7.50;65.80
44351;BME280;62766;62.622;17.912;2022-10-31T11:16:00;100687.92;;;7.54;65.91
44351;BME280;62766;62.622;17.912;2022-10-31T11:18:39;100684.05;;;7.68;65.38
44351;BME280;62766;62.622;17.912;2022-10-31T11:21:20;100692.43;;;7.59;65.29
44351;BME280;62766;62.622;17.912;2022-10-31T11:23:48;100687.49;;;7.61;65.27
44351;BME280;62766;62.622;17.912;2022-10-31T11:26:19;100683.88;;;7.66;65.29
44351;BME280;62766;62.622;17.912;2022-10-31T11:28:56;100684.56;;;7.62;65.12
44351;BME280;62766;62.622;17.912;2022-10-31T11:31:27;100685.24;;;7.71;65.21
44351;BME280;62766;62.622;17.912;2022-10-31T11:33:58;100677.85;;;7.88;65.13
44351;BME280;62766;62.622;17.912;2022-10-31T11:36:30;100680.02;;;7.85;65.22
44351;BME280;62766;62.622;17.912;2022-10-31T11:39:01;100676.85;;;7.76;65.06
44351;BME280;62766;62.622;17.912;2022-10-31T11:41:32;100673.41;;;7.94;65.03
44351;BME280;62766;62.622;17.912;2022-10-31T11:44:03;100673.25;;;7.91;65.28
44351;BME280;62766;62.622;17.912;2022-10-31T11:46:34;100666.53;;;7.79;65.53
44351;BME280;62766;62.622;17.912;2022-10-31T11:49:13;100660.86;;;7.94;65.79
44351;BME280;62766;62.622;17.912;2022-10-31T11:51:48;100658.36;;;7.94;66.04
44351;BME280;62766;62.622;17.912;2022-10-31T11:54:21;100654.86;;;7.85;66.41
44351;BME280;62766;62.622;17.912;2022-10-31T11:56:52;100650.53;;;8.00;66.61
44351;BME280;62766;62.622;17.912;2022-10-31T11:59:25;100650.69;;;7.86;66.87
44351;BME280;62766;62.622;17.912;2022-10-31T12:01:55;100647.47;;;7.94;66.80
44351;BME280;62766;62.622;17.912;2022-10-31T12:04:31;100647.91;;;8.04;66.82
44351;BME280;62766;62.622;17.912;2022-10-31T12:07:01;100642.41;;;8.15;67.00
44351;BME280;62766;62.622;17.912;2022-10-31T12:09:32;100647.63;;;8.10;66.86
44351;BME280;62766;62.622;17.912;2022-10-31T12:12:21;100651.07;;;8.21;66.92
44351;BME280;62766;62.622;17.912;2022-10-31T12:15:02;100648.96;;;8.24;67.13
44351;BME280;62766;62.622;17.912;2022-10-31T12:17:38;100649.79;;;8.21;67.15
44351;BME280;62766;62.622;17.912;2022-10-31T12:20:20;100652.40;;;8.25;66.81
44351;BME280;62766;62.622;17.912;2022-10-31T12:22:57;100646.73;;;8.22;66.77
44351;BME280;62766;62.622;17.912;2022-10-31T12:25:39;100640.01;;;8.22;67.06
44351;BME280;62766;62.622;17.912;2022-10-31T12:28:30;100645.51;;;8.15;66.98
44351;BME280;62766;62.622;17.912;2022-10-31T12:31:17;100643.63;;;8.08;66.95
44351;BME280;62766;62.622;17.912;2022-10-31T12:33:57;100643.35;;;8.16;67.19
44351;BME280;62766;62.622;17.912;2022-10-31T12:36:38;100640.79;;;8.03;67.22
44351;BME280;62766;62.622;17.912;2022-10-31T12:39:23;100646.40;;;8.26;67.16
44351;BME280;62766;62.622;17.912;2022-10-31T12:41:58;100643.56;;;8.20;66.84
44351;BME280;62766;62.622;17.912;2022-10-31T12:44:44;100649.67;;;8.08;66.67
44351;BME280;62766;62.622;17.912;2022-10-31T12:47:34;100653.91;;;8.16;66.83
44351;BME280;62766;62.622;17.912;2022-10-31T12:50:16;100651.63;;;8.20;66.85
44351;BME280;62766;62.622;17.912;2022-10-31T12:52:56;100657.58;;;8.10;67.09
44351;BME280;62766;62.622;17.912;2022-10-31T12:55:38;100654.75;;;8.02;67.01
44351;BME280;62766;62.622;17.912;2022-10-31T12:58:15;100654.24;;;8.02;67.02
44351;BME280;62766;62.622;17.912;2022-10-31T13:00:48;100657.02;;;8.16;67.28
44351;BME280;62766;62.622;17.912;2022-10-31T13:03:26;100660.02;;;8.08;67.24
44351;BME280;62766;62.622;17.912;2022-10-31T13:06:02;100655.41;;;8.12;67.05
44351;BME280;62766;62.622;17.912;2022-10-31T13:08:35;100653.91;;;8.11;66.95
44351;BME280;62766;62.622;17.912;2022-10-31T13:11:10;100654.57;;;8.18;66.83
44351;BME280;62766;62.622;17.912;2022-10-31T13:13:42;100657.23;;;8.13;66.66
44351;BME280;62766;62.622;17.912;2022-10-31T13:16:16;100658.06;;;8.28;66.43
44351;BME280;62766;62.622;17.912;2022-10-31T13:18:51;100660.85;;;8.35;66.26
44351;BME280;62766;62.622;17.912;2022-10-31T13:21:25;100663.46;;;8.20;66.27
44351;BME280;62766;62.622;17.912;2022-10-31T13:23:57;100668.85;;;8.23;66.30